x

New Dungeness - 17 Nm Ne Of Port Angeles, Wa (46088) Wave Buoy

4:50 - Tue 7th Jul 2015 All times are PDT. -7 hours from GMT.

  • Sig Wave height 1.3ft
  • Swell Direction
  • Peak Period 3s
  • Average Period 3s
  • Wind
    16mph, 18mph gusts
  • Sea Temp 53°f
  • Aire Temp 56°f
  • Sea Pressure 1013.9mb
  • New Dungeness - 17 Nm Ne Of Port Angeles, Wa
  • New Dungeness - 17 Nm Ne Of Port Angeles, Wa

More Historic Weather Station data

Upgrade to MSW Pro to gain access to the past 30 days of data for over 8000 Wavebouys and Weather Stations around the globe.

Join Pro

Comparision Forecast

View Surf forecast
   
mar 07/07 4:50 1.3ft 3s 3s 16 18 mph 1013.9mb 53f 56f
4:20 1ft 4s 3s 13 16 mph 1014.4mb 54f 56f
3:50 0.3ft  -  3s 13 16 mph 1014.8mb 54f 56f
3:20 0.3ft  -  4s 11 13 mph 1015.2mb 54f 56f
2:50 0.3ft  -  4s 9
mph
1015.6mb 54f 56f
2:20 0.7ft  -  4s 4 7 mph 1016mb 54f 56f
1:50 0.7ft  -  4s 4
mph
1016.4mb 54f 57f
1:20 0.7ft  -  4s 4 7 mph 1016.8mb 54f 57f
12:50 0.7ft  -  3s 4 7 mph 1017.1mb 54f 56f
12:20 0.7ft  -  3s 4 7 mph 1017.2mb 53f 56f
11:50 0.7ft  -  3s 7
mph
1017.5mb 53f 56f
11:20 0.7ft  -  3s 7 9 mph 1017.6mb 53f 56f
10:50  -   -   -  9 11 mph 1017.6mb 53f 56f
10:20 1ft 3s 3s 11
mph
1017.6mb 52f 55f
9:50 1ft 3s 3s 9 11 mph 1017.8mb 52f 55f
9:20 1ft 3s 3s 11
mph
1017.8mb 52f 55f
8:50 1.3ft 3s 3s 11 13 mph 1017.7mb 52f 55f
8:20 1.3ft 4s 3s 13 16 mph 1017.5mb 52f 55f
7:50 1.3ft 4s 3s 16 18 mph 1017.4mb 52f 54f
7:20 2ft 4s 3s 16 18 mph 1017.3mb 52f 54f
6:50 2ft 4s 4s 16 18 mph 1017.1mb 52f 54f
6:20 2.5ft 4s 4s 16 18 mph 1016.9mb 52f 54f
5:50 2.5ft 4s 4s 16 18 mph 1016.7mb 52f 55f
5:20 2.5ft 4s 4s 16 18 mph 1016.5mb 52f 55f
4:50 2.5ft 4s 4s 18 20 mph 1016.2mb 52f 55f
4:20 2.5ft 5s 4s 16 20 mph 1016.1mb 52f 55f
3:50 2.5ft 5s 4s 18 20 mph 1015.9mb 52f 55f
3:20 2ft 5s 4s 16 18 mph 1015.8mb 52f 55f
2:50 1.6ft 5s 4s 18 20 mph 1015.6mb 52f 55f
2:20 2ft 4s 4s 16 20 mph 1015.6mb 52f 55f
1:50 1.6ft 4s 4s 16 18 mph 1015.4mb 52f 55f
1:20 1.6ft 5s 4s 13 16 mph 1015.3mb 52f 55f
12:50 1.6ft 4s 4s 13 16 mph 1015.3mb 52f 55f
12:20 1.6ft 4s 4s 13 16 mph 1015mb 52f 55f
lun 07/06 11:50 2ft 4s 4s 16 18 mph 1015mb 52f 55f
11:20 2ft 4s 3s 18 20 mph 1014.8mb 52f 56f
10:50 2ft 4s 3s 20 22 mph 1014.5mb 52f 55f
10:20 2.5ft 4s 3s 22 27 mph 1014.4mb 52f 56f
9:50 2.5ft 3s 3s 25 29 mph 1014.2mb 53f 56f
9:20 2.5ft 4s 3s 25 29 mph 1013.8mb 53f 56f
8:50 2.5ft 4s 3s 25 29 mph 1013.7mb 53f 56f
8:20 2.5ft 4s 3s 22 27 mph 1013.6mb 53f 56f
7:50 3ft 4s 3s 22 27 mph 1013.7mb 53f 56f
7:20 3ft 4s 4s 27 31 mph 1013.5mb 53f 56f
6:50 3ft 4s 4s 22 27 mph 1013.9mb 53f 56f
6:20 2.5ft 4s 4s 22 27 mph 1014.1mb 53f 56f
5:50 3ft 4s 4s 20 22 mph 1014.3mb 54f 56f
5:20 3ft 4s 4s 20 22 mph 1014.6mb 54f 56f
4:50 3.5ft 5s 4s 18 22 mph 1014.8mb 54f 56f
4:20 3ft 4s 4s 18 22 mph 1015.1mb 54f 56f
3:50 2.5ft 5s 4s 18 20 mph 1015.3mb 54f 56f
3:20 2ft 5s 4s 18 20 mph 1015.5mb 53f 56f
2:50 2ft 5s 4s 16 20 mph 1015.7mb 53f 55f
2:20 1.6ft 5s 4s 16 20 mph 1015.8mb 53f 55f
1:50 1.6ft 5s 4s 18 20 mph 1016mb 53f 56f
1:20 2ft 5s 4s 20 25 mph 1016.1mb 52f 56f
12:50 2ft 5s 4s 18 20 mph 1016.2mb 52f 56f
12:20 2.5ft 5s 4s 20 25 mph 1016.1mb 52f 56f
11:50 2ft 5s 4s 18 22 mph 1016.1mb 52f 55f
11:20 2ft 4s 4s 18 20 mph 1016mb 52f 55f
10:50 2ft 4s 4s 16 20 mph 1016mb 52f 54f
10:20 2ft 4s 4s 18 22 mph 1015.7mb 52f 55f
9:50 1.6ft 4s 4s 20 25 mph 1015.5mb 52f 55f
9:20 1.6ft 4s 3s 18 22 mph 1015.5mb 52f 54f
8:50 1.6ft 3s 3s 18 22 mph 1015.2mb 52f 54f
8:20 2ft 4s 3s 20 25 mph 1014.9mb 52f 55f
7:50 1.6ft 3s 3s 18 22 mph 1014.8mb 52f 54f
7:20 2ft 4s 3s 20 25 mph 1014.6mb 52f 54f
6:50 2ft 3s 3s 18 22 mph 1014.4mb 52f 55f
6:20 1.6ft 4s 3s 20 22 mph 1014mb 52f 55f
5:50 2ft 3s 3s 18 20 mph 1013.7mb 52f 54f
5:20 2ft 4s 3s 20 22 mph 1013.3mb 52f 53f
4:50 2ft 4s 3s 16 18 mph 1013.3mb 52f 53f
4:20 2ft 4s 3s 16 18 mph 1013.1mb 52f 54f
3:50 1.6ft 4s 3s 16 18 mph 1012.9mb 52f 54f
3:20 1.3ft 4s 3s 20 22 mph 1012.3mb 52f 55f
2:50 1.3ft 4s 4s 18 20 mph 1012.2mb 52f 55f
2:20 1.3ft 4s 3s 16 18 mph 1012.1mb 52f 56f
1:50 1.3ft 4s 4s 16 18 mph 1011.9mb 53f 56f
1:20 1.3ft 4s 3s 13 16 mph 1011.7mb 53f 56f
12:50 1.3ft 4s 3s 13
mph
1011.7mb 53f 57f
12:20 1.3ft 4s 3s 16 18 mph 1011.5mb 53f 57f
dom 07/05 11:50 1.3ft 3s 3s 16 18 mph 1011.4mb 53f 56f
11:20 1.3ft 3s 3s 16 18 mph 1011.2mb 53f 56f
10:50 1.3ft 3s 3s 16 18 mph 1011mb 53f 57f
10:20 1.3ft 3s 3s 16 18 mph 1010.8mb 53f 57f
9:50 1ft 3s 3s 13
mph
1010.7mb 53f 56f
9:20 1ft 3s 3s 13
mph
1010.4mb 53f 56f
8:50 1ft 8s 3s 13 16 mph 1010.3mb 53f 56f
8:20 0.7ft  -  4s 13 16 mph 1010.2mb 53f 56f
7:50 0.7ft  -  4s 13 16 mph 1010.1mb 53f 56f
7:20 0.7ft  -  4s 13
mph
1010.1mb 53f 57f
6:50 0.7ft  -  4s 9 11 mph 1010.1mb 53f 64f
6:20 1ft 5s 4s 9
mph
1010.2mb 53f 64f
5:50 1.3ft 7s 5s 9
mph
1010.3mb 54f 64f
5:20 1.3ft 7s 5s 7 9 mph 1010.3mb 54f 63f
4:50 1.3ft 7s 6s 7
mph
1010.4mb 55f 64f
4:20 1.6ft 7s 6s 7
mph
1010.5mb 54f 65f
3:50 1.6ft 8s 6s 7
mph
1010.6mb 54f 65f
3:20 1.6ft 8s 6s 4 7 mph 1010.8mb 54f 64f
2:50 1.6ft 8s 7s 7
mph
1010.9mb 53f 66f
2:20 1ft 8s 6s 4
mph
1011.1mb 53f 64f
1:50 1ft 9s 6s 4
mph
1011.3mb 54f 62f
1:20 1ft 9s 5s 4 7 mph 1011.4mb 53f 64f
12:50 1ft 9s 6s 4
mph
1011.6mb 53f 61f
12:20 1ft 9s 5s 2 4 mph 1011.6mb 53f 61f
11:50 0.3ft  -  4s 4
mph
1011.6mb 53f 61f
11:20 0.7ft  -  5s 2 4 mph 1011.5mb 53f 60f
10:50 0.3ft  -  5s 4 7 mph 1011.5mb 53f 64f
10:20 0.3ft  -  3s 4
mph
1011.6mb 53f 62f
9:50 0.3ft  -  4s 7
mph
1011.7mb 53f 63f
9:20 0.3ft  -  6s 7
mph
1011.6mb 53f 62f
8:50 0.7ft  -  6s 7 9 mph 1011.3mb 53f 60f
8:20 0.3ft  -  5s 7
mph
1011.1mb 53f 57f
7:50 0.3ft  -  5s 7 9 mph 1010.9mb 53f 56f
7:20 0.3ft  -  5s 7
mph
1010.7mb 52f 62f
6:50 0.3ft  -  5s 7
mph
1010.5mb 53f 57f
6:20 0.3ft  -  5s 7 9 mph 1010.4mb 53f 56f
5:50 0.7ft  -  6s 7 9 mph 1010.2mb 52f 55f
5:20 0.7ft  -  5s 9 11 mph 1010mb 52f 54f
4:50 0.7ft  -  5s 9 11 mph 1009.7mb 53f 55f
4:20 0.7ft  -  5s 7 9 mph 1009.6mb 53f 54f
3:50 0.7ft  -  4s 7
mph
1009.7mb 53f 54f
3:20 0.3ft  -  4s 2 4 mph 1009.6mb 53f 55f
2:50 0.3ft  -  4s 2
mph
1009.5mb 53f 54f
2:20 0.3ft  -  4s 4
mph
1009.3mb 53f 54f
1:50 0.3ft  -  4s 7
mph
1009.3mb 53f 55f
1:20 0.3ft  -  4s 2 4 mph 1009.3mb 53f 54f
12:50 0.3ft  -  4s 4 7 mph 1008.9mb 53f 54f
12:20 0.7ft  -  3s 7
mph
1009.1mb 53f 54f
sáb 07/04 11:50 0.7ft  -  4s 2
mph
1009mb 53f 56f
11:20 0.7ft  -  3s 2
mph
1009mb 53f 56f
10:50 0.7ft  -  4s 4
mph
1008.8mb 53f 56f
10:20 0.7ft  -  4s 7 9 mph 1008.8mb 53f 56f
9:50 0.7ft  -  4s 11 13 mph 1008.5mb 53f 56f
9:20 1ft 8s 4s 9 11 mph 1008.1mb 53f 55f
8:50 1ft 6s 4s 9 11 mph 1008.2mb 53f 56f
8:20 1ft 6s 4s 11
mph
1008.1mb 53f 57f
7:50 1ft 8s 3s 9
mph
1008.2mb 53f 57f
7:20 0.7ft  -  4s 9 11 mph 1008.3mb 54f 58f
6:50 1ft 7s 4s 9 11 mph 1008.4mb 54f 56f
6:20 0.7ft  -  4s 13
mph
1008.5mb 53f 57f
5:50 0.7ft  -  4s 11 13 mph 1008.7mb 54f 56f
5:20 0.7ft  -  4s 11 13 mph 1008.9mb 54f 56f
4:50 1ft 7s 5s 11
mph
1009.3mb 55f 57f
4:20 1.3ft 7s 6s 7 9 mph 1009.7mb 55f 56f
3:50 1.6ft 8s 6s 7
mph
1010.2mb 55f 56f
3:20 1.6ft 8s 7s 7
mph
1010.5mb 55f 56f
2:50 2ft 7s 6s 4
mph
1010.9mb 54f 56f
2:20 2ft 8s  -  4 7 mph 1011mb 53f 55f
1:50 1.3ft 8s 6s 4
mph
1011.4mb 53f 57f
1:20 1ft 8s 5s  -  2 mph 1011.5mb 53f 57f
12:50 1ft 8s 5s  -  mph 1011.7mb 55f 57f
12:20 1ft 9s 5s 2
mph
1011.9mb 55f 56f
11:50 1ft 9s 5s 2
mph
1012.1mb 55f 56f
11:20 1ft 9s 7s 4
mph
1012.2mb 55f 56f
10:50 0.7ft  -  6s 2 4 mph 1012.3mb 55f 56f
10:20 0.7ft  -  5s 2 4 mph 1012.3mb 54f 56f
9:50 0.3ft  -  5s 2 4 mph 1012.4mb 54f 55f
9:20 0.3ft  -  4s 2 4 mph 1012.5mb 53f 54f
8:50 0.7ft  -  4s  -  2 mph 1012.4mb 53f 54f
8:20 0.3ft  -  4s 2 4 mph 1012.5mb 53f 54f
7:50 0.3ft  -  4s 2
mph
1012.2mb 52f 54f
7:20 0.7ft  -  5s 2
mph
1012.2mb 52f 53f
6:50 0.7ft  -  5s 4 7 mph 1012mb 52f 53f
6:20 0.3ft  -  4s 4
mph
1011.9mb 52f 54f
5:50 0.7ft  -  4s 7 9 mph 1011.6mb 52f 53f
5:20 0.7ft  -  3s 7
mph
1011.8mb 52f 53f
4:50 0.7ft  -  4s 7 9 mph 1011.7mb 52f 53f
4:20 0.7ft  -  3s 2 4 mph 1011.6mb 52f 53f
3:50 0.7ft  -  3s 7
mph
1011.4mb 52f 53f
3:20 1ft 3s 3s 4 7 mph 1011.5mb 52f 53f
2:50 1ft 3s 3s 4 7 mph 1011.4mb 52f 53f
2:20 1ft 3s 3s 4 7 mph 1011.4mb 52f 54f
1:50 0.7ft  -  3s 4
mph
1011.5mb 52f 54f
1:20 1ft 3s  -  4 7 mph 1011.6mb 53f 54f